createdAt,value
2017-10-04T00:00:55.328Z,1020.5
2017-10-04T00:01:56.747Z,1020.5
2017-10-04T00:02:58.163Z,1020.4
2017-10-04T00:03:59.582Z,1020.4
2017-10-04T00:05:00.997Z,1020.4
2017-10-04T00:06:02.414Z,1020.5
2017-10-04T00:07:03.833Z,1020.5
2017-10-04T00:08:05.293Z,1020.5
2017-10-04T00:09:06.711Z,1020.5
2017-10-04T00:10:08.130Z,1020.4
2017-10-04T00:11:09.548Z,1020.4
2017-10-04T00:12:10.968Z,1020.5
2017-10-04T00:13:12.383Z,1020.4
2017-10-04T00:14:13.802Z,1020.4
2017-10-04T00:15:15.217Z,1020.4
2017-10-04T00:16:16.639Z,1020.4
2017-10-04T00:17:18.056Z,1020.3
2017-10-04T00:18:19.472Z,1020.3
2017-10-04T00:19:20.891Z,1020.3
2017-10-04T00:20:22.307Z,1020.2
2017-10-04T00:21:23.725Z,1020.2
2017-10-04T00:22:25.140Z,1020.2
2017-10-04T00:23:26.555Z,1020.2
2017-10-04T00:24:27.976Z,1020.2
2017-10-04T00:25:29.387Z,1020.2
2017-10-04T00:26:30.819Z,1020.2
2017-10-04T00:27:32.232Z,1020.1
2017-10-04T00:28:33.648Z,1020.2
2017-10-04T00:29:35.068Z,1020.2
2017-10-04T00:30:36.488Z,1020.2
2017-10-04T00:31:37.907Z,1020.2
2017-10-04T00:32:39.326Z,1020.2
2017-10-04T00:33:40.743Z,1020.2
2017-10-04T00:34:42.161Z,1020.2
2017-10-04T00:35:43.578Z,1020.2
2017-10-04T00:36:44.993Z,1020.3
2017-10-04T00:37:46.412Z,1020.3
2017-10-04T00:38:47.825Z,1020.3
2017-10-04T00:39:49.244Z,1020.3
2017-10-04T00:40:50.660Z,1020.3
2017-10-04T00:41:52.079Z,1020.4
2017-10-04T00:42:53.497Z,1020.4
2017-10-04T00:43:54.913Z,1020.3
2017-10-04T00:44:56.331Z,1020.3
2017-10-04T00:45:57.747Z,1020.3
2017-10-04T00:46:59.163Z,1020.2
2017-10-04T00:48:00.581Z,1020.3
2017-10-04T00:49:02.002Z,1020.2
2017-10-04T00:50:03.420Z,1020.2
2017-10-04T00:51:04.840Z,1020.2
2017-10-04T00:52:06.258Z,1020.2
2017-10-04T00:53:07.675Z,1020.2
2017-10-04T00:54:09.094Z,1020.2
2017-10-04T00:55:10.511Z,1020.1
2017-10-04T00:56:11.930Z,1020.1
2017-10-04T00:57:13.350Z,1020.1
2017-10-04T00:58:14.766Z,1020.1
2017-10-04T00:59:16.183Z,1020.1
2017-10-04T01:00:17.598Z,1020.1
2017-10-04T01:01:19.020Z,1020.1
2017-10-04T01:02:20.437Z,1020.0
2017-10-04T01:03:21.854Z,1020.1
2017-10-04T01:04:23.269Z,1020.1
2017-10-04T01:05:24.696Z,1020.0
2017-10-04T01:06:26.111Z,1020.1
2017-10-04T01:07:27.528Z,1020.1
2017-10-04T01:08:28.947Z,1020.1
2017-10-04T01:09:30.370Z,1020.1
2017-10-04T01:10:31.788Z,1020.1
2017-10-04T01:11:33.206Z,1020.1
2017-10-04T01:12:34.624Z,1020.1
2017-10-04T01:13:36.041Z,1020.2
2017-10-04T01:14:37.456Z,1020.2
2017-10-04T01:15:38.874Z,1020.1
2017-10-04T01:16:40.291Z,1020.1
2017-10-04T01:17:41.709Z,1020.1
2017-10-04T01:18:43.130Z,1020.1
2017-10-04T01:19:44.546Z,1020.1
2017-10-04T01:20:45.961Z,1020.0
2017-10-04T01:21:47.377Z,1020.0
2017-10-04T01:22:48.797Z,1020.0
2017-10-04T01:23:50.214Z,1020.0
2017-10-04T01:24:51.632Z,1020.1
2017-10-04T01:25:53.049Z,1020.0
2017-10-04T01:26:54.466Z,1020.0
2017-10-04T01:27:55.883Z,1019.9
2017-10-04T01:28:57.304Z,1019.8
2017-10-04T01:29:58.720Z,1019.8
2017-10-04T01:31:00.140Z,1019.8
2017-10-04T01:32:01.560Z,1019.8
2017-10-04T01:33:02.979Z,1019.9
2017-10-04T01:34:04.394Z,1020.0
2017-10-04T01:35:05.809Z,1020.0
2017-10-04T01:36:07.228Z,1019.9
2017-10-04T01:37:08.645Z,1019.9
2017-10-04T01:38:10.064Z,1019.9
2017-10-04T01:39:11.478Z,1020.0
2017-10-04T01:40:12.896Z,1020.0
2017-10-04T01:41:14.313Z,1020.0
2017-10-04T01:42:15.729Z,1019.9
2017-10-04T01:43:17.144Z,1019.9
2017-10-04T01:44:18.562Z,1020.0
2017-10-04T01:45:19.983Z,1020.0
2017-10-04T01:46:21.398Z,1020.0
2017-10-04T01:47:22.816Z,1019.9
2017-10-04T01:48:24.233Z,1019.9
2017-10-04T01:49:25.652Z,1019.9
2017-10-04T01:50:27.070Z,1019.9
2017-10-04T01:51:28.488Z,1019.8
2017-10-04T01:52:29.905Z,1019.8
2017-10-04T01:53:31.326Z,1019.8
2017-10-04T01:54:32.745Z,1019.8
2017-10-04T01:55:34.161Z,1019.8
2017-10-04T01:56:35.588Z,1019.8
2017-10-04T01:57:37.001Z,1019.8
2017-10-04T01:58:38.421Z,1019.8
2017-10-04T01:59:39.837Z,1019.8
2017-10-04T02:00:41.251Z,1019.8
2017-10-04T02:01:42.669Z,1019.8
2017-10-04T02:02:44.086Z,1019.9
2017-10-04T02:03:45.505Z,1019.8
2017-10-04T02:04:46.920Z,1019.8
2017-10-04T02:05:48.335Z,1019.8
2017-10-04T02:06:49.753Z,1019.8
2017-10-04T02:07:51.169Z,1019.9
2017-10-04T02:08:52.584Z,1019.8
2017-10-04T02:09:54.004Z,1019.8
2017-10-04T02:10:55.415Z,1019.8
2017-10-04T02:11:56.835Z,1019.8
2017-10-04T02:12:58.253Z,1019.8
2017-10-04T02:13:59.672Z,1019.8
2017-10-04T02:15:01.090Z,1019.8
2017-10-04T02:16:02.507Z,1019.9
2017-10-04T02:17:03.925Z,1019.9
2017-10-04T02:18:05.344Z,1019.8
2017-10-04T02:19:06.762Z,1019.8
2017-10-04T02:20:08.177Z,1019.8
2017-10-04T02:21:09.595Z,1019.9
2017-10-04T02:22:11.012Z,1019.8
2017-10-04T02:23:12.429Z,1019.9
2017-10-04T02:24:13.848Z,1019.9
2017-10-04T02:25:15.262Z,1019.9
2017-10-04T02:26:16.680Z,1019.9
2017-10-04T02:27:18.095Z,1019.9
2017-10-04T02:28:19.511Z,1019.9
2017-10-04T02:29:20.928Z,1019.8
2017-10-04T02:30:22.347Z,1019.8
2017-10-04T02:31:23.765Z,1019.8
2017-10-04T02:32:25.177Z,1019.7
2017-10-04T02:33:26.594Z,1019.8
2017-10-04T02:34:28.011Z,1019.8
2017-10-04T02:35:29.424Z,1019.8
2017-10-04T02:36:30.842Z,1019.7
2017-10-04T02:37:32.262Z,1019.7
2017-10-04T02:38:33.679Z,1019.7
2017-10-04T02:39:35.099Z,1019.7
2017-10-04T02:40:36.517Z,1019.7
2017-10-04T02:41:37.936Z,1019.7
2017-10-04T02:42:39.350Z,1019.7
2017-10-04T02:43:40.768Z,1019.7
2017-10-04T02:44:42.186Z,1019.6
2017-10-04T02:45:43.602Z,1019.6
2017-10-04T02:46:45.018Z,1019.6
2017-10-04T02:47:46.437Z,1019.7
2017-10-04T02:48:47.856Z,1019.7
2017-10-04T02:49:49.276Z,1019.7
2017-10-04T02:50:50.690Z,1019.6
2017-10-04T02:51:52.106Z,1019.6
2017-10-04T02:52:53.522Z,1019.6
2017-10-04T02:53:54.940Z,1019.7
2017-10-04T02:54:56.355Z,1019.6
2017-10-04T02:55:57.774Z,1019.6
2017-10-04T02:56:59.189Z,1019.7
2017-10-04T02:58:00.606Z,1019.7
2017-10-04T02:59:02.022Z,1019.7
2017-10-04T03:00:03.440Z,1019.7
2017-10-04T03:01:04.857Z,1019.6
2017-10-04T03:02:06.275Z,1019.7
2017-10-04T03:03:07.698Z,1019.7
2017-10-04T03:04:09.112Z,1019.7
2017-10-04T03:05:10.531Z,1019.6
2017-10-04T03:06:11.948Z,1019.6
2017-10-04T03:07:13.364Z,1019.6
2017-10-04T03:08:14.779Z,1019.6
2017-10-04T03:09:16.205Z,1019.6
2017-10-04T03:10:17.617Z,1019.6
2017-10-04T03:11:19.032Z,1019.5
2017-10-04T03:12:20.451Z,1019.5
2017-10-04T03:13:21.870Z,1019.5
2017-10-04T03:14:23.282Z,1019.5
2017-10-04T03:15:24.699Z,1019.5
2017-10-04T03:16:26.115Z,1019.5
2017-10-04T03:17:27.536Z,1019.5
2017-10-04T03:18:28.949Z,1019.5
2017-10-04T03:19:30.367Z,1019.5
2017-10-04T03:20:31.786Z,1019.5
2017-10-04T03:21:33.203Z,1019.5
2017-10-04T03:22:34.627Z,1019.5
2017-10-04T03:23:36.039Z,1019.5
2017-10-04T03:24:37.459Z,1019.5
2017-10-04T03:25:38.878Z,1019.4
2017-10-04T03:26:40.289Z,1019.4
2017-10-04T03:27:41.709Z,1019.3
2017-10-04T03:28:43.125Z,1019.3
2017-10-04T03:29:44.542Z,1019.3
2017-10-04T03:30:45.957Z,1019.3
2017-10-04T03:31:47.374Z,1019.3
2017-10-04T03:32:48.790Z,1019.4
2017-10-04T03:33:50.210Z,1019.3
2017-10-04T03:34:51.628Z,1019.3
2017-10-04T03:35:53.045Z,1019.3
2017-10-04T03:36:54.461Z,1019.3
2017-10-04T03:37:55.876Z,1019.3
2017-10-04T03:38:57.292Z,1019.4
2017-10-04T03:39:58.711Z,1019.3
2017-10-04T03:41:00.123Z,1019.3
2017-10-04T03:42:01.540Z,1019.3
2017-10-04T03:43:02.959Z,1019.3
2017-10-04T03:44:04.373Z,1019.3
2017-10-04T03:45:05.790Z,1019.3
2017-10-04T03:46:07.210Z,1019.3
2017-10-04T03:47:08.629Z,1019.3
2017-10-04T03:48:10.048Z,1019.3
2017-10-04T03:49:11.464Z,1019.3
2017-10-04T03:50:12.888Z,1019.3
2017-10-04T03:51:14.302Z,1019.3
2017-10-04T03:52:15.718Z,1019.2
2017-10-04T03:53:17.137Z,1019.2
2017-10-04T03:54:18.556Z,1019.3
2017-10-04T03:55:19.979Z,1019.3
2017-10-04T03:56:21.394Z,1019.3
2017-10-04T03:57:22.814Z,1019.3
2017-10-04T03:58:24.229Z,1019.3
2017-10-04T03:59:25.648Z,1019.3
2017-10-04T04:00:27.066Z,1019.3
2017-10-04T04:01:28.486Z,1019.3
2017-10-04T04:02:29.903Z,1019.3
2017-10-04T04:03:31.321Z,1019.4
2017-10-04T04:04:32.743Z,1019.4
2017-10-04T04:05:34.164Z,1019.4
2017-10-04T04:06:35.573Z,1019.4
2017-10-04T04:07:36.990Z,1019.4
2017-10-04T04:08:38.409Z,1019.4
2017-10-04T04:09:39.826Z,1019.4
2017-10-04T04:10:41.248Z,1019.4
2017-10-04T04:11:42.663Z,1019.3
2017-10-04T04:12:44.080Z,1019.4
2017-10-04T04:13:45.495Z,1019.3
2017-10-04T04:14:46.912Z,1019.3
2017-10-04T04:15:48.327Z,1019.3
2017-10-04T04:16:49.739Z,1019.3
2017-10-04T04:17:51.159Z,1019.3
2017-10-04T04:18:52.575Z,1019.3
2017-10-04T04:19:53.992Z,1019.3
2017-10-04T04:20:55.405Z,1019.3
2017-10-04T04:21:56.826Z,1019.2
2017-10-04T04:22:58.245Z,1019.1
2017-10-04T04:23:59.663Z,1019.1
2017-10-04T04:25:01.082Z,1019.1
2017-10-04T04:26:02.497Z,1019.1
2017-10-04T04:27:03.916Z,1019.0
2017-10-04T04:28:05.334Z,1019.0
2017-10-04T04:29:06.752Z,1019.0
2017-10-04T04:30:08.167Z,1019.0
2017-10-04T04:31:09.583Z,1019.0
2017-10-04T04:32:10.999Z,1019.0
2017-10-04T04:33:12.419Z,1019.0
2017-10-04T04:34:13.839Z,1019.0
2017-10-04T04:35:15.253Z,1019.0
2017-10-04T04:36:16.668Z,1019.1
2017-10-04T04:37:18.085Z,1019.0
2017-10-04T04:38:19.503Z,1019.0
2017-10-04T04:39:20.920Z,1019.0
2017-10-04T04:40:22.335Z,1019.1
2017-10-04T04:41:23.753Z,1019.1
2017-10-04T04:42:25.171Z,1019.1
2017-10-04T04:43:26.589Z,1019.1
2017-10-04T04:44:28.008Z,1019.0
2017-10-04T04:45:29.431Z,1019.1
2017-10-04T04:46:30.847Z,1019.1
2017-10-04T04:47:32.264Z,1019.1
2017-10-04T04:48:33.681Z,1019.1
2017-10-04T04:49:35.096Z,1019.1
2017-10-04T04:50:36.514Z,1019.0
2017-10-04T04:51:37.931Z,1019.0
2017-10-04T04:52:39.348Z,1019.0
2017-10-04T04:53:40.766Z,1019.0
2017-10-04T04:54:42.181Z,1019.0
2017-10-04T04:55:43.598Z,1019.0
2017-10-04T04:56:45.015Z,1019.1
2017-10-04T04:57:46.432Z,1019.1
2017-10-04T04:58:47.846Z,1019.1
2017-10-04T04:59:49.262Z,1019.0
2017-10-04T05:00:50.681Z,1018.9
2017-10-04T05:01:52.096Z,1018.9
2017-10-04T05:02:53.514Z,1018.9
2017-10-04T05:03:54.931Z,1018.9
2017-10-04T05:04:56.350Z,1018.9
2017-10-04T05:05:57.770Z,1018.9
2017-10-04T05:06:59.188Z,1018.9
2017-10-04T05:08:00.603Z,1018.9
2017-10-04T05:09:02.023Z,1018.9
2017-10-04T05:10:03.436Z,1018.9
2017-10-04T05:11:04.854Z,1018.9
2017-10-04T05:12:06.277Z,1018.8
2017-10-04T05:13:07.693Z,1018.9
2017-10-04T05:14:09.108Z,1018.9
2017-10-04T05:15:10.527Z,1018.8
2017-10-04T05:16:11.942Z,1018.9
2017-10-04T05:17:13.358Z,1018.8
2017-10-04T05:18:14.775Z,1018.8
2017-10-04T05:19:16.196Z,1018.8
2017-10-04T05:20:17.605Z,1018.7
2017-10-04T05:21:19.025Z,1018.8
2017-10-04T05:22:20.440Z,1018.7
2017-10-04T05:23:21.857Z,1018.7
2017-10-04T05:24:23.277Z,1018.8
2017-10-04T05:25:24.694Z,1018.8
2017-10-04T05:26:26.113Z,1018.8
2017-10-04T05:27:27.531Z,1018.8
2017-10-04T05:28:28.949Z,1018.8
2017-10-04T05:29:30.365Z,1018.8
2017-10-04T05:30:31.782Z,1018.8
2017-10-04T05:31:33.198Z,1018.9
2017-10-04T05:32:34.615Z,1018.9
2017-10-04T05:33:36.044Z,1019.0
2017-10-04T05:34:37.458Z,1019.0
2017-10-04T05:35:38.875Z,1019.0
2017-10-04T05:36:40.292Z,1019.0
2017-10-04T05:37:41.708Z,1018.9
2017-10-04T05:38:43.124Z,1018.9
2017-10-04T05:39:44.539Z,1018.9
2017-10-04T05:40:45.958Z,1018.9
2017-10-04T05:41:47.377Z,1018.9
2017-10-04T05:42:48.795Z,1018.9
2017-10-04T05:43:50.212Z,1018.9
2017-10-04T05:44:51.631Z,1018.9
2017-10-04T05:45:53.049Z,1018.9
2017-10-04T05:46:54.465Z,1018.8
2017-10-04T05:47:55.880Z,1018.8
2017-10-04T05:48:57.299Z,1018.8
2017-10-04T05:49:58.716Z,1018.8
2017-10-04T05:51:00.135Z,1018.9
2017-10-04T05:52:01.550Z,1018.9
2017-10-04T05:53:02.966Z,1018.9
2017-10-04T05:54:04.383Z,1018.8
2017-10-04T05:55:05.800Z,1018.8
2017-10-04T05:56:07.215Z,1018.8
2017-10-04T05:57:08.633Z,1018.9
2017-10-04T05:58:10.096Z,1018.9
2017-10-04T05:59:11.522Z,1018.9
2017-10-04T06:00:12.942Z,1018.9
2017-10-04T06:01:14.357Z,1019.0
2017-10-04T06:02:15.775Z,1019.0
2017-10-04T06:03:17.191Z,1019.0
2017-10-04T06:04:18.609Z,1019.0
2017-10-04T06:05:20.026Z,1019.0
2017-10-04T06:06:21.444Z,1019.0
2017-10-04T06:07:22.859Z,1019.0
2017-10-04T06:08:24.278Z,1018.9
2017-10-04T06:09:25.696Z,1019.0
2017-10-04T06:10:27.111Z,1019.0
2017-10-04T06:11:28.529Z,1019.0
2017-10-04T06:12:29.945Z,1019.0
2017-10-04T06:13:31.361Z,1019.0
2017-10-04T06:14:32.784Z,1019.0
2017-10-04T06:15:34.204Z,1019.0
2017-10-04T06:16:35.626Z,1019.1
2017-10-04T06:17:37.041Z,1019.1
2017-10-04T06:18:38.460Z,1019.1
2017-10-04T06:19:39.880Z,1019.0
2017-10-04T06:20:41.296Z,1019.0
2017-10-04T06:21:42.715Z,1018.9
2017-10-04T06:22:44.158Z,1019.0
2017-10-04T06:23:45.575Z,1019.0
2017-10-04T06:24:46.993Z,1018.9
2017-10-04T06:25:48.412Z,1018.9
2017-10-04T06:26:49.832Z,1018.9
2017-10-04T06:27:51.252Z,1018.8
2017-10-04T06:28:52.669Z,1018.8
2017-10-04T06:29:54.083Z,1018.8
2017-10-04T06:30:55.501Z,1018.8
2017-10-04T06:31:56.912Z,1018.8
2017-10-04T06:32:58.339Z,1018.8
2017-10-04T06:33:59.757Z,1018.8
2017-10-04T06:35:01.176Z,1018.8
2017-10-04T06:36:02.594Z,1018.9
2017-10-04T06:37:04.010Z,1018.9
2017-10-04T06:38:05.452Z,1018.9
2017-10-04T06:39:06.870Z,1018.8
2017-10-04T06:40:08.289Z,1018.8
2017-10-04T06:41:09.712Z,1018.8
2017-10-04T06:42:11.137Z,1018.8
2017-10-04T06:43:12.561Z,1018.7
2017-10-04T06:44:13.975Z,1018.7
2017-10-04T06:45:15.388Z,1018.7
2017-10-04T06:46:16.808Z,1018.8
2017-10-04T06:47:18.222Z,1018.8
2017-10-04T06:48:19.643Z,1018.8
2017-10-04T06:49:21.064Z,1018.8
2017-10-04T06:50:22.482Z,1018.8
2017-10-04T06:51:23.900Z,1018.8
2017-10-04T06:52:25.323Z,1018.8
2017-10-04T06:53:26.736Z,1018.8
2017-10-04T06:54:28.153Z,1018.8
2017-10-04T06:55:29.572Z,1018.8
2017-10-04T06:56:30.991Z,1018.8
2017-10-04T06:57:32.415Z,1018.8
2017-10-04T06:58:33.832Z,1018.8
2017-10-04T06:59:35.250Z,1018.8
2017-10-04T07:00:36.671Z,1018.8
2017-10-04T07:01:38.087Z,1018.8
2017-10-04T07:02:39.509Z,1018.8
2017-10-04T07:03:40.925Z,1018.8
2017-10-04T07:04:42.343Z,1018.8
2017-10-04T07:05:43.761Z,1018.8
2017-10-04T07:06:45.176Z,1018.7
2017-10-04T07:07:46.632Z,1018.7
2017-10-04T07:08:48.050Z,1018.7
2017-10-04T07:09:49.463Z,1018.7
2017-10-04T07:10:50.886Z,1018.7
2017-10-04T07:11:52.305Z,1018.7
2017-10-04T07:12:53.720Z,1018.6
2017-10-04T07:13:55.140Z,1018.6
2017-10-04T07:14:56.556Z,1018.6
2017-10-04T07:15:57.972Z,1018.6
2017-10-04T07:16:59.392Z,1018.6
2017-10-04T07:18:00.811Z,1018.6
2017-10-04T07:19:02.231Z,1018.6
2017-10-04T07:20:03.651Z,1018.6
2017-10-04T07:21:05.070Z,1018.6
2017-10-04T07:22:06.503Z,1018.6
2017-10-04T07:23:07.916Z,1018.6
2017-10-04T07:24:09.335Z,1018.6
2017-10-04T07:25:10.751Z,1018.6
2017-10-04T07:26:12.169Z,1018.6
2017-10-04T07:27:13.589Z,1018.7
2017-10-04T07:28:15.009Z,1018.7
2017-10-04T07:29:16.428Z,1018.7
2017-10-04T07:30:17.843Z,1018.7
2017-10-04T07:31:19.263Z,1018.7
2017-10-04T07:32:20.679Z,1018.7
2017-10-04T07:33:22.083Z,1018.7
2017-10-04T07:34:23.516Z,1018.7
2017-10-04T07:35:24.933Z,1018.8
2017-10-04T07:36:26.351Z,1018.8
2017-10-04T07:37:27.773Z,1018.8
2017-10-04T07:38:29.188Z,1018.8
2017-10-04T07:39:30.613Z,1018.7
2017-10-04T07:40:32.035Z,1018.7
2017-10-04T07:41:33.455Z,1018.7
2017-10-04T07:42:34.872Z,1018.8
2017-10-04T07:43:36.289Z,1018.8
2017-10-04T07:44:37.707Z,1018.9
2017-10-04T07:45:39.144Z,1018.9
2017-10-04T07:46:40.564Z,1018.8
2017-10-04T07:47:41.984Z,1018.8
2017-10-04T07:48:43.404Z,1018.8
2017-10-04T07:49:44.817Z,1018.8
2017-10-04T07:50:46.235Z,1018.8
2017-10-04T07:51:47.652Z,1018.8
2017-10-04T07:52:49.070Z,1018.9
2017-10-04T07:53:50.487Z,1018.8
2017-10-04T07:54:51.907Z,1018.8
2017-10-04T07:55:53.326Z,1018.8
2017-10-04T07:56:54.740Z,1018.9
2017-10-04T07:57:56.159Z,1018.9
2017-10-04T07:58:57.577Z,1018.9
2017-10-04T07:59:58.996Z,1018.9
2017-10-04T08:01:00.415Z,1018.9
2017-10-04T08:02:01.841Z,1018.9
2017-10-04T08:03:03.260Z,1018.9
2017-10-04T08:04:04.677Z,1018.9
2017-10-04T08:05:06.097Z,1018.9
2017-10-04T08:06:07.513Z,1018.9
2017-10-04T08:07:08.930Z,1018.9
2017-10-04T08:08:10.345Z,1018.9
2017-10-04T08:09:11.764Z,1018.9
2017-10-04T08:10:13.185Z,1018.9
2017-10-04T08:11:14.603Z,1018.9
2017-10-04T08:12:16.021Z,1018.9
2017-10-04T08:13:17.445Z,1018.9
2017-10-04T08:14:18.866Z,1018.8
2017-10-04T08:15:20.279Z,1018.9
2017-10-04T08:16:21.694Z,1018.8
2017-10-04T08:17:23.147Z,1018.8
2017-10-04T08:18:24.571Z,1018.8
2017-10-04T08:19:25.983Z,1018.7
2017-10-04T08:20:27.400Z,1018.6
2017-10-04T08:21:28.817Z,1018.6
2017-10-04T08:22:30.235Z,1018.6
2017-10-04T08:23:31.652Z,1018.7
2017-10-04T08:24:33.068Z,1018.7
2017-10-04T08:25:34.488Z,1018.7
2017-10-04T08:26:35.904Z,1018.7
2017-10-04T08:27:37.382Z,1018.7
2017-10-04T08:28:38.847Z,1018.7
2017-10-04T08:29:40.269Z,1018.7
2017-10-04T08:30:41.685Z,1018.6
2017-10-04T08:31:43.103Z,1018.7
2017-10-04T08:32:44.550Z,1018.6
2017-10-04T08:33:45.968Z,1018.6
2017-10-04T08:34:47.384Z,1018.6
2017-10-04T08:35:48.802Z,1018.6
2017-10-04T08:36:50.224Z,1018.5
2017-10-04T08:37:51.639Z,1018.5
2017-10-04T08:38:53.061Z,1018.6
2017-10-04T08:39:54.484Z,1018.6
2017-10-04T08:40:55.901Z,1018.6
2017-10-04T08:41:57.322Z,1018.7
2017-10-04T08:42:58.739Z,1018.7
2017-10-04T08:44:00.160Z,1018.8
2017-10-04T08:45:01.576Z,1018.8
2017-10-04T08:46:02.994Z,1018.8
2017-10-04T08:47:04.412Z,1018.8
2017-10-04T08:48:05.859Z,1018.8
2017-10-04T08:49:07.248Z,1018.7
2017-10-04T08:50:08.684Z,1018.7
2017-10-04T08:51:10.106Z,1018.7
2017-10-04T08:52:11.522Z,1018.7
2017-10-04T08:53:12.938Z,1018.7
2017-10-04T08:54:14.360Z,1018.7
2017-10-04T08:55:15.782Z,1018.7
2017-10-04T08:56:17.199Z,1018.7
2017-10-04T08:57:18.615Z,1018.7
2017-10-04T08:58:20.036Z,1018.8
2017-10-04T08:59:21.451Z,1018.7
2017-10-04T09:00:22.872Z,1018.7
2017-10-04T09:01:24.290Z,1018.7
2017-10-04T09:02:25.709Z,1018.6
2017-10-04T09:03:27.130Z,1018.6
2017-10-04T09:04:28.549Z,1018.6
2017-10-04T09:05:29.966Z,1018.6
2017-10-04T09:06:31.384Z,1018.6
2017-10-04T09:07:32.800Z,1018.6
2017-10-04T09:08:34.221Z,1018.7
2017-10-04T09:09:35.640Z,1018.7
2017-10-04T09:10:37.057Z,1018.6
2017-10-04T09:11:38.476Z,1018.5
2017-10-04T09:12:39.891Z,1018.5
2017-10-04T09:13:41.308Z,1018.5
2017-10-04T09:14:42.733Z,1018.4
2017-10-04T09:15:44.155Z,1018.4
2017-10-04T09:16:45.573Z,1018.4
2017-10-04T09:17:46.989Z,1018.4
2017-10-04T09:18:48.408Z,1018.5
2017-10-04T09:19:49.826Z,1018.5
2017-10-04T09:20:51.243Z,1018.6
2017-10-04T09:21:52.666Z,1018.6
2017-10-04T09:22:54.086Z,1018.5
2017-10-04T09:23:55.504Z,1018.5
2017-10-04T09:24:56.923Z,1018.5
2017-10-04T09:25:58.341Z,1018.5
2017-10-04T09:26:59.765Z,1018.5
2017-10-04T09:28:01.195Z,1018.5
2017-10-04T09:29:02.616Z,1018.5
2017-10-04T09:30:04.032Z,1018.5
2017-10-04T09:31:05.451Z,1018.6
2017-10-04T09:32:06.868Z,1018.6
2017-10-04T09:33:08.290Z,1018.6
2017-10-04T09:34:09.708Z,1018.6
2017-10-04T09:35:11.131Z,1018.6
2017-10-04T09:36:12.548Z,1018.6
2017-10-04T09:37:13.970Z,1018.5
2017-10-04T09:38:15.398Z,1018.5
2017-10-04T09:39:16.817Z,1018.4
2017-10-04T09:40:18.236Z,1018.4
2017-10-04T09:41:19.657Z,1018.4
2017-10-04T09:42:21.075Z,1018.3
2017-10-04T09:43:22.501Z,1018.4
2017-10-04T09:44:23.917Z,1018.4
2017-10-04T09:45:25.336Z,1018.4
2017-10-04T09:46:26.755Z,1018.4
2017-10-04T09:47:28.196Z,1018.4
2017-10-04T09:48:29.594Z,1018.4
2017-10-04T09:49:31.035Z,1018.4
2017-10-04T09:50:32.432Z,1018.5
2017-10-04T09:51:33.850Z,1018.4
2017-10-04T09:52:35.269Z,1018.4
2017-10-04T09:53:36.688Z,1018.4
2017-10-04T09:54:38.111Z,1018.4
2017-10-04T09:55:39.532Z,1018.5
2017-10-04T09:56:40.949Z,1018.5
2017-10-04T09:57:42.367Z,1018.5
2017-10-04T09:58:43.789Z,1018.4
2017-10-04T09:59:45.206Z,1018.4
2017-10-04T10:00:46.625Z,1018.5
2017-10-04T10:01:48.044Z,1018.5
2017-10-04T10:02:49.463Z,1018.5
2017-10-04T10:03:50.883Z,1018.4
2017-10-04T10:04:52.305Z,1018.4
2017-10-04T10:05:53.731Z,1018.4
2017-10-04T10:06:55.150Z,1018.3
2017-10-04T10:07:56.568Z,1018.4
2017-10-04T10:08:57.997Z,1018.4
2017-10-04T10:09:59.420Z,1018.4
2017-10-04T10:11:00.843Z,1018.4
2017-10-04T10:12:02.263Z,1018.4
2017-10-04T10:13:03.682Z,1018.4
2017-10-04T10:14:05.100Z,1018.4
2017-10-04T10:15:06.523Z,1018.4
2017-10-04T10:16:07.942Z,1018.3
2017-10-04T10:17:09.367Z,1018.3
2017-10-04T10:18:10.804Z,1018.3
2017-10-04T10:19:12.209Z,1018.3
2017-10-04T10:20:13.629Z,1018.2
2017-10-04T10:21:15.044Z,1018.3
2017-10-04T10:22:16.465Z,1018.4
2017-10-04T10:23:17.885Z,1018.4
2017-10-04T10:24:19.303Z,1018.4
2017-10-04T10:25:20.723Z,1018.4
2017-10-04T10:26:22.143Z,1018.4
2017-10-04T10:27:23.562Z,1018.5
2017-10-04T10:28:24.981Z,1018.5
2017-10-04T10:29:26.409Z,1018.5
2017-10-04T10:30:27.824Z,1018.6
2017-10-04T10:31:29.242Z,1018.6
2017-10-04T10:32:30.665Z,1018.5
2017-10-04T10:33:32.083Z,1018.5
2017-10-04T10:34:33.500Z,1018.5
2017-10-04T10:35:34.917Z,1018.5
2017-10-04T10:36:36.334Z,1018.5
2017-10-04T10:37:37.752Z,1018.5
2017-10-04T10:38:39.175Z,1018.5
2017-10-04T10:39:40.593Z,1018.5
2017-10-04T10:40:42.015Z,1018.4
2017-10-04T10:41:43.446Z,1018.4
2017-10-04T10:42:44.854Z,1018.4
2017-10-04T10:43:46.272Z,1018.3
2017-10-04T10:44:47.692Z,1018.3
2017-10-04T10:45:49.121Z,1018.3
2017-10-04T10:46:50.539Z,1018.3
2017-10-04T10:47:51.959Z,1018.4
2017-10-04T10:48:53.383Z,1018.4
2017-10-04T10:49:54.801Z,1018.4
2017-10-04T10:50:56.219Z,1018.5
2017-10-04T10:51:57.637Z,1018.6
2017-10-04T10:52:59.054Z,1018.5
2017-10-04T10:54:00.481Z,1018.5
2017-10-04T10:55:01.899Z,1018.6
2017-10-04T10:56:03.317Z,1018.5
2017-10-04T10:57:04.735Z,1018.4
2017-10-04T10:58:06.154Z,1018.3
2017-10-04T10:59:07.574Z,1018.3
2017-10-04T11:00:09.005Z,1018.2
2017-10-04T11:01:10.415Z,1018.2
2017-10-04T11:02:11.829Z,1018.1
2017-10-04T11:03:13.249Z,1018.1
2017-10-04T11:04:14.672Z,1018.1
2017-10-04T11:05:16.092Z,1018.1
2017-10-04T11:06:17.508Z,1018.1
2017-10-04T11:07:18.933Z,1018.1
2017-10-04T11:08:20.345Z,1018.2
2017-10-04T11:09:21.765Z,1018.3
2017-10-04T11:10:23.184Z,1018.2
2017-10-04T11:11:24.605Z,1018.2
2017-10-04T11:12:26.028Z,1018.1
2017-10-04T11:13:27.446Z,1018.1
2017-10-04T11:14:28.863Z,1018.2
2017-10-04T11:15:30.285Z,1018.1
2017-10-04T11:16:31.717Z,1018.1
2017-10-04T11:17:33.123Z,1018.1
2017-10-04T11:18:34.549Z,1018.1
2017-10-04T11:19:35.965Z,1018.1
2017-10-04T11:20:37.386Z,1018.1
2017-10-04T11:21:38.808Z,1018.1
2017-10-04T11:22:40.227Z,1018.0
2017-10-04T11:23:41.647Z,1018.0
2017-10-04T11:24:43.068Z,1018.0
2017-10-04T11:25:44.489Z,1017.9
2017-10-04T11:26:45.923Z,1017.9
2017-10-04T11:27:47.346Z,1017.8
2017-10-04T11:28:48.766Z,1017.8
2017-10-04T11:29:50.186Z,1017.8
2017-10-04T11:30:51.605Z,1017.7
2017-10-04T11:31:53.025Z,1017.8
2017-10-04T11:32:54.445Z,1017.7
2017-10-04T11:33:55.865Z,1017.7
2017-10-04T11:34:57.282Z,1017.8
2017-10-04T11:35:58.701Z,1017.9
2017-10-04T11:37:00.126Z,1017.9
2017-10-04T11:38:01.546Z,1017.9
2017-10-04T11:39:02.965Z,1017.9
2017-10-04T11:40:04.384Z,1017.9
2017-10-04T11:41:05.802Z,1017.9
2017-10-04T11:42:07.223Z,1017.9
2017-10-04T11:43:08.642Z,1017.9
2017-10-04T11:44:10.064Z,1017.8
2017-10-04T11:45:11.480Z,1017.8
2017-10-04T11:46:12.899Z,1017.7
2017-10-04T11:47:14.325Z,1017.7
2017-10-04T11:48:15.747Z,1017.8
2017-10-04T11:49:17.169Z,1017.7
2017-10-04T11:50:18.589Z,1017.7
2017-10-04T11:51:20.011Z,1017.7
2017-10-04T11:52:21.430Z,1017.7
2017-10-04T11:53:22.848Z,1017.7
2017-10-04T11:54:24.268Z,1017.7
2017-10-04T11:55:25.685Z,1017.7
2017-10-04T11:56:27.104Z,1017.8
2017-10-04T11:57:28.531Z,1017.6
2017-10-04T11:58:29.952Z,1017.6
2017-10-04T11:59:31.388Z,1017.5
2017-10-04T12:00:32.865Z,1017.6
2017-10-04T12:01:34.284Z,1017.6
2017-10-04T12:02:35.706Z,1017.6
2017-10-04T12:03:37.127Z,1017.6
2017-10-04T12:04:38.544Z,1017.6
2017-10-04T12:05:39.966Z,1017.6
2017-10-04T12:06:41.383Z,1017.5
2017-10-04T12:07:42.804Z,1017.4
2017-10-04T12:08:44.224Z,1017.5
2017-10-04T12:09:45.644Z,1017.6
2017-10-04T12:10:47.065Z,1017.6
2017-10-04T12:11:48.488Z,1017.6
2017-10-04T12:12:49.910Z,1017.6
2017-10-04T12:13:51.327Z,1017.6
2017-10-04T12:14:52.746Z,1017.6
2017-10-04T12:15:54.166Z,1017.7
2017-10-04T12:16:55.584Z,1017.5
2017-10-04T12:17:57.006Z,1017.5
2017-10-04T12:18:58.425Z,1017.4
2017-10-04T12:19:59.848Z,1017.5
2017-10-04T12:21:01.270Z,1017.5
2017-10-04T12:22:02.690Z,1017.5
2017-10-04T12:23:04.116Z,1017.4
2017-10-04T12:24:05.531Z,1017.4
2017-10-04T12:25:06.956Z,1017.3
2017-10-04T12:26:08.373Z,1017.4
2017-10-04T12:27:09.800Z,1017.5
2017-10-04T12:28:11.222Z,1017.5
2017-10-04T12:29:12.643Z,1017.5
2017-10-04T12:30:14.064Z,1017.6
2017-10-04T12:31:15.484Z,1017.6
2017-10-04T12:32:16.904Z,1017.5
2017-10-04T12:33:18.327Z,1017.5
2017-10-04T12:34:19.745Z,1017.4
2017-10-04T12:35:21.162Z,1017.4
2017-10-04T12:36:22.581Z,1017.4
2017-10-04T12:37:24.005Z,1017.4
2017-10-04T12:38:25.427Z,1017.4
2017-10-04T12:39:26.849Z,1017.4
2017-10-04T12:40:28.271Z,1017.3
2017-10-04T12:41:29.692Z,1017.4
2017-10-04T12:42:31.111Z,1017.3
2017-10-04T12:43:32.533Z,1017.4
2017-10-04T12:44:33.957Z,1017.4
2017-10-04T12:45:35.376Z,1017.3
2017-10-04T12:46:36.804Z,1017.4